sensor_id;sensor_type;location;lat;lon;timestamp;temperature;humidity
24860;DHT22;12936;52.006;4.350;2023-03-01T00:00:47;3.60;99.90
24860;DHT22;12936;52.006;4.350;2023-03-01T00:03:18;3.60;99.90
24860;DHT22;12936;52.006;4.350;2023-03-01T00:05:51;3.60;99.90
24860;DHT22;12936;52.006;4.350;2023-03-01T00:08:24;3.60;99.90
24860;DHT22;12936;52.006;4.350;2023-03-01T00:11:17;3.60;99.90
24860;DHT22;12936;52.006;4.350;2023-03-01T00:13:57;3.50;99.90
24860;DHT22;12936;52.006;4.350;2023-03-01T00:16:32;3.50;99.90
24860;DHT22;12936;52.006;4.350;2023-03-01T00:19:04;3.50;99.90
24860;DHT22;12936;52.006;4.350;2023-03-01T00:21:55;3.50;99.90
24860;DHT22;12936;52.006;4.350;2023-03-01T00:24:25;3.50;99.90
24860;DHT22;12936;52.006;4.350;2023-03-01T00:27:15;3.40;99.90
24860;DHT22;12936;52.006;4.350;2023-03-01T00:29:49;3.40;99.90
24860;DHT22;12936;52.006;4.350;2023-03-01T00:32:17;3.40;99.90
24860;DHT22;12936;52.006;4.350;2023-03-01T00:34:50;3.40;99.90
24860;DHT22;12936;52.006;4.350;2023-03-01T00:38:05;3.40;99.90
24860;DHT22;12936;52.006;4.350;2023-03-01T00:40:38;3.30;99.90
24860;DHT22;12936;52.006;4.350;2023-03-01T00:43:10;3.30;99.90
24860;DHT22;12936;52.006;4.350;2023-03-01T00:45:42;3.30;99.90
24860;DHT22;12936;52.006;4.350;2023-03-01T00:48:25;3.30;99.90
24860;DHT22;12936;52.006;4.350;2023-03-01T00:50:55;3.30;99.90
24860;DHT22;12936;52.006;4.350;2023-03-01T00:53:27;3.30;99.90
24860;DHT22;12936;52.006;4.350;2023-03-01T00:55:57;3.30;99.90
24860;DHT22;12936;52.006;4.350;2023-03-01T00:58:26;3.20;99.90
24860;DHT22;12936;52.006;4.350;2023-03-01T01:01:09;3.20;99.90
24860;DHT22;12936;52.006;4.350;2023-03-01T01:03:53;3.20;99.90
24860;DHT22;12936;52.006;4.350;2023-03-01T01:06:38;3.20;99.90
24860;DHT22;12936;52.006;4.350;2023-03-01T01:09:32;3.20;99.90
24860;DHT22;12936;52.006;4.350;2023-03-01T01:12:08;3.20;99.90
24860;DHT22;12936;52.006;4.350;2023-03-01T01:15:13;3.20;99.90
24860;DHT22;12936;52.006;4.350;2023-03-01T01:18:10;3.20;99.90
24860;DHT22;12936;52.006;4.350;2023-03-01T01:20:40;3.20;99.90
24860;DHT22;12936;52.006;4.350;2023-03-01T01:23:31;3.10;99.90
24860;DHT22;12936;52.006;4.350;2023-03-01T01:26:07;3.10;99.90
24860;DHT22;12936;52.006;4.350;2023-03-01T01:28:58;3.10;99.90
24860;DHT22;12936;52.006;4.350;2023-03-01T01:31:50;3.10;99.90
24860;DHT22;12936;52.006;4.350;2023-03-01T01:34:34;3.10;99.90
24860;DHT22;12936;52.006;4.350;2023-03-01T01:37:09;3.10;99.90
24860;DHT22;12936;52.006;4.350;2023-03-01T01:39:38;3.00;99.90
24860;DHT22;12936;52.006;4.350;2023-03-01T01:42:33;3.10;99.90
24860;DHT22;12936;52.006;4.350;2023-03-01T01:45:24;3.00;99.90
24860;DHT22;12936;52.006;4.350;2023-03-01T01:48:07;3.00;99.90
24860;DHT22;12936;52.006;4.350;2023-03-01T01:50:44;3.00;99.90
24860;DHT22;12936;52.006;4.350;2023-03-01T01:53:37;3.00;99.90
24860;DHT22;12936;52.006;4.350;2023-03-01T01:56:16;3.00;99.90
24860;DHT22;12936;52.006;4.350;2023-03-01T01:59:06;3.00;99.90
24860;DHT22;12936;52.006;4.350;2023-03-01T02:01:35;3.00;99.90
24860;DHT22;12936;52.006;4.350;2023-03-01T02:04:04;3.00;99.90
24860;DHT22;12936;52.006;4.350;2023-03-01T02:06:44;3.00;99.90
24860;DHT22;12936;52.006;4.350;2023-03-01T02:09:41;3.00;99.90
24860;DHT22;12936;52.006;4.350;2023-03-01T02:12:11;3.00;99.90
24860;DHT22;12936;52.006;4.350;2023-03-01T02:14:49;3.00;99.90
24860;DHT22;12936;52.006;4.350;2023-03-01T02:17:20;2.90;99.90
24860;DHT22;12936;52.006;4.350;2023-03-01T02:20:08;3.00;99.90
24860;DHT22;12936;52.006;4.350;2023-03-01T02:22:50;3.00;99.90
24860;DHT22;12936;52.006;4.350;2023-03-01T02:25:47;2.90;99.90
24860;DHT22;12936;52.006;4.350;2023-03-01T02:28:32;2.90;99.90
24860;DHT22;12936;52.006;4.350;2023-03-01T02:31:02;2.90;99.90
24860;DHT22;12936;52.006;4.350;2023-03-01T02:34:15;2.90;99.90
24860;DHT22;12936;52.006;4.350;2023-03-01T02:36:59;3.00;99.90
24860;DHT22;12936;52.006;4.350;2023-03-01T02:39:37;2.90;99.90
24860;DHT22;12936;52.006;4.350;2023-03-01T02:42:18;2.90;99.90
24860;DHT22;12936;52.006;4.350;2023-03-01T02:44:55;3.00;99.90
24860;DHT22;12936;52.006;4.350;2023-03-01T02:47:24;3.00;99.90
24860;DHT22;12936;52.006;4.350;2023-03-01T02:50:01;3.00;99.90
24860;DHT22;12936;52.006;4.350;2023-03-01T02:52:37;3.00;99.90
24860;DHT22;12936;52.006;4.350;2023-03-01T02:55:16;2.90;99.90
24860;DHT22;12936;52.006;4.350;2023-03-01T02:57:49;2.90;99.90
24860;DHT22;12936;52.006;4.350;2023-03-01T03:00:24;2.90;99.90
24860;DHT22;12936;52.006;4.350;2023-03-01T03:03:20;2.90;99.90
24860;DHT22;12936;52.006;4.350;2023-03-01T03:05:50;2.90;99.90
24860;DHT22;12936;52.006;4.350;2023-03-01T03:08:40;2.80;99.90
24860;DHT22;12936;52.006;4.350;2023-03-01T03:11:43;2.80;99.90
24860;DHT22;12936;52.006;4.350;2023-03-01T03:14:17;2.80;99.90
24860;DHT22;12936;52.006;4.350;2023-03-01T03:16:49;2.80;99.90
24860;DHT22;12936;52.006;4.350;2023-03-01T03:19:38;2.70;99.90
24860;DHT22;12936;52.006;4.350;2023-03-01T03:22:53;2.70;99.90
24860;DHT22;12936;52.006;4.350;2023-03-01T03:25:50;2.70;99.90
24860;DHT22;12936;52.006;4.350;2023-03-01T03:28:56;2.70;99.90
24860;DHT22;12936;52.006;4.350;2023-03-01T03:31:25;2.60;99.90
24860;DHT22;12936;52.006;4.350;2023-03-01T03:34:00;2.60;99.90
24860;DHT22;12936;52.006;4.350;2023-03-01T03:36:32;2.60;99.90
24860;DHT22;12936;52.006;4.350;2023-03-01T03:39:11;2.60;99.90
24860;DHT22;12936;52.006;4.350;2023-03-01T03:41:43;2.60;99.90
24860;DHT22;12936;52.006;4.350;2023-03-01T03:44:35;2.60;99.90
24860;DHT22;12936;52.006;4.350;2023-03-01T03:47:05;2.60;99.90
24860;DHT22;12936;52.006;4.350;2023-03-01T03:50:20;2.60;99.90
24860;DHT22;12936;52.006;4.350;2023-03-01T03:52:55;2.60;99.90
24860;DHT22;12936;52.006;4.350;2023-03-01T03:55:43;2.60;99.90
24860;DHT22;12936;52.006;4.350;2023-03-01T03:58:21;2.60;99.90
24860;DHT22;12936;52.006;4.350;2023-03-01T04:00:55;2.60;99.90
24860;DHT22;12936;52.006;4.350;2023-03-01T04:03:25;2.60;99.90
24860;DHT22;12936;52.006;4.350;2023-03-01T04:05:59;2.60;99.90
24860;DHT22;12936;52.006;4.350;2023-03-01T04:08:31;2.60;99.90
24860;DHT22;12936;52.006;4.350;2023-03-01T04:11:07;2.60;99.90
24860;DHT22;12936;52.006;4.350;2023-03-01T04:14:16;2.60;99.90
24860;DHT22;12936;52.006;4.350;2023-03-01T04:17:25;2.60;99.90
24860;DHT22;12936;52.006;4.350;2023-03-01T04:20:03;2.60;99.90
24860;DHT22;12936;52.006;4.350;2023-03-01T04:22:36;2.60;99.90
24860;DHT22;12936;52.006;4.350;2023-03-01T04:25:08;2.60;99.90
24860;DHT22;12936;52.006;4.350;2023-03-01T04:27:41;2.60;99.90
24860;DHT22;12936;52.006;4.350;2023-03-01T04:30:11;2.60;99.90
24860;DHT22;12936;52.006;4.350;2023-03-01T04:32:52;2.60;99.90
24860;DHT22;12936;52.006;4.350;2023-03-01T04:35:53;2.60;99.90
24860;DHT22;12936;52.006;4.350;2023-03-01T04:38:46;2.60;99.90
24860;DHT22;12936;52.006;4.350;2023-03-01T04:41:51;2.60;99.90
24860;DHT22;12936;52.006;4.350;2023-03-01T04:44:20;2.60;99.90
24860;DHT22;12936;52.006;4.350;2023-03-01T04:46:50;2.60;99.90
24860;DHT22;12936;52.006;4.350;2023-03-01T04:49:42;2.60;99.90
24860;DHT22;12936;52.006;4.350;2023-03-01T04:52:13;2.60;99.90
24860;DHT22;12936;52.006;4.350;2023-03-01T04:54:55;2.60;99.90
24860;DHT22;12936;52.006;4.350;2023-03-01T04:57:33;2.60;99.90
24860;DHT22;12936;52.006;4.350;2023-03-01T05:00:08;2.60;99.90
24860;DHT22;12936;52.006;4.350;2023-03-01T05:02:50;2.60;99.90
24860;DHT22;12936;52.006;4.350;2023-03-01T05:05:24;2.50;99.90
24860;DHT22;12936;52.006;4.350;2023-03-01T05:07:59;2.60;99.90
24860;DHT22;12936;52.006;4.350;2023-03-01T05:10:35;2.50;99.90
24860;DHT22;12936;52.006;4.350;2023-03-01T05:13:21;2.60;99.90
24860;DHT22;12936;52.006;4.350;2023-03-01T05:16:14;2.50;99.90
24860;DHT22;12936;52.006;4.350;2023-03-01T05:18:45;2.50;99.90
24860;DHT22;12936;52.006;4.350;2023-03-01T05:21:17;2.50;99.90
24860;DHT22;12936;52.006;4.350;2023-03-01T05:23:46;2.50;99.90
24860;DHT22;12936;52.006;4.350;2023-03-01T05:26:36;2.50;99.90
24860;DHT22;12936;52.006;4.350;2023-03-01T05:29:28;2.50;99.90
24860;DHT22;12936;52.006;4.350;2023-03-01T05:32:03;2.40;99.90
24860;DHT22;12936;52.006;4.350;2023-03-01T05:34:34;2.40;99.90
24860;DHT22;12936;52.006;4.350;2023-03-01T05:37:03;2.40;99.90
24860;DHT22;12936;52.006;4.350;2023-03-01T05:39:32;2.40;99.90
24860;DHT22;12936;52.006;4.350;2023-03-01T05:42:01;2.30;99.90
24860;DHT22;12936;52.006;4.350;2023-03-01T05:44:30;2.30;99.90
24860;DHT22;12936;52.006;4.350;2023-03-01T05:46:58;2.30;99.90
24860;DHT22;12936;52.006;4.350;2023-03-01T05:49:26;2.30;99.90
24860;DHT22;12936;52.006;4.350;2023-03-01T05:51:54;2.30;99.90
24860;DHT22;12936;52.006;4.350;2023-03-01T05:54:25;2.20;99.90
24860;DHT22;12936;52.006;4.350;2023-03-01T05:56:54;2.20;99.90
24860;DHT22;12936;52.006;4.350;2023-03-01T05:59:24;2.20;99.90
24860;DHT22;12936;52.006;4.350;2023-03-01T06:01:52;2.10;99.90
24860;DHT22;12936;52.006;4.350;2023-03-01T06:04:23;2.10;99.90
24860;DHT22;12936;52.006;4.350;2023-03-01T06:06:51;2.10;99.90
24860;DHT22;12936;52.006;4.350;2023-03-01T06:09:21;2.00;99.90
24860;DHT22;12936;52.006;4.350;2023-03-01T06:11:50;2.00;99.90
24860;DHT22;12936;52.006;4.350;2023-03-01T06:14:18;2.00;99.90
24860;DHT22;12936;52.006;4.350;2023-03-01T06:16:48;2.00;99.90
24860;DHT22;12936;52.006;4.350;2023-03-01T06:19:16;2.00;99.90
24860;DHT22;12936;52.006;4.350;2023-03-01T06:21:45;2.00;99.90
24860;DHT22;12936;52.006;4.350;2023-03-01T06:24:13;1.90;99.90
24860;DHT22;12936;52.006;4.350;2023-03-01T06:26:41;1.90;99.90
24860;DHT22;12936;52.006;4.350;2023-03-01T06:29:09;1.90;99.90
24860;DHT22;12936;52.006;4.350;2023-03-01T06:31:37;1.90;99.90
24860;DHT22;12936;52.006;4.350;2023-03-01T06:34:06;1.90;99.90
24860;DHT22;12936;52.006;4.350;2023-03-01T06:36:34;1.80;99.90
24860;DHT22;12936;52.006;4.350;2023-03-01T06:39:02;1.90;99.90
24860;DHT22;12936;52.006;4.350;2023-03-01T06:41:32;1.80;99.90
24860;DHT22;12936;52.006;4.350;2023-03-01T06:44:00;1.90;99.90
24860;DHT22;12936;52.006;4.350;2023-03-01T06:46:29;1.80;99.90
24860;DHT22;12936;52.006;4.350;2023-03-01T06:48:58;1.80;99.90
24860;DHT22;12936;52.006;4.350;2023-03-01T06:51:32;1.90;99.90
24860;DHT22;12936;52.006;4.350;2023-03-01T06:54:00;1.90;99.90
24860;DHT22;12936;52.006;4.350;2023-03-01T06:56:28;1.90;99.90
24860;DHT22;12936;52.006;4.350;2023-03-01T06:58:57;1.80;99.90
24860;DHT22;12936;52.006;4.350;2023-03-01T07:01:25;1.90;99.90
24860;DHT22;12936;52.006;4.350;2023-03-01T07:03:53;1.90;99.90
24860;DHT22;12936;52.006;4.350;2023-03-01T07:06:22;1.80;99.90
24860;DHT22;12936;52.006;4.350;2023-03-01T07:08:52;1.90;99.90
24860;DHT22;12936;52.006;4.350;2023-03-01T07:11:20;1.90;99.90
24860;DHT22;12936;52.006;4.350;2023-03-01T07:13:48;1.90;99.90
24860;DHT22;12936;52.006;4.350;2023-03-01T07:16:16;1.90;99.90
24860;DHT22;12936;52.006;4.350;2023-03-01T07:18:45;2.00;99.90
24860;DHT22;12936;52.006;4.350;2023-03-01T07:21:14;2.00;99.90
24860;DHT22;12936;52.006;4.350;2023-03-01T07:23:43;2.00;99.90
24860;DHT22;12936;52.006;4.350;2023-03-01T07:26:36;2.00;99.90
24860;DHT22;12936;52.006;4.350;2023-03-01T07:29:07;2.10;99.90
24860;DHT22;12936;52.006;4.350;2023-03-01T07:31:35;2.20;99.90
24860;DHT22;12936;52.006;4.350;2023-03-01T07:34:04;2.10;99.90
24860;DHT22;12936;52.006;4.350;2023-03-01T07:36:32;2.20;99.90
24860;DHT22;12936;52.006;4.350;2023-03-01T07:39:00;2.20;99.90
24860;DHT22;12936;52.006;4.350;2023-03-01T07:41:30;2.30;99.90
24860;DHT22;12936;52.006;4.350;2023-03-01T07:43:59;2.40;99.90
24860;DHT22;12936;52.006;4.350;2023-03-01T07:46:27;2.40;99.90
24860;DHT22;12936;52.006;4.350;2023-03-01T07:48:56;2.50;99.90
24860;DHT22;12936;52.006;4.350;2023-03-01T07:51:24;2.50;99.90
24860;DHT22;12936;52.006;4.350;2023-03-01T07:53:52;2.50;99.90
24860;DHT22;12936;52.006;4.350;2023-03-01T07:56:20;2.60;99.90
24860;DHT22;12936;52.006;4.350;2023-03-01T07:58:49;2.60;99.90
24860;DHT22;12936;52.006;4.350;2023-03-01T08:01:20;2.70;99.90
24860;DHT22;12936;52.006;4.350;2023-03-01T08:03:48;2.70;99.90
24860;DHT22;12936;52.006;4.350;2023-03-01T08:06:17;2.80;99.90
24860;DHT22;12936;52.006;4.350;2023-03-01T08:08:46;2.80;99.90
24860;DHT22;12936;52.006;4.350;2023-03-01T08:11:14;2.80;99.90
24860;DHT22;12936;52.006;4.350;2023-03-01T08:13:43;2.80;99.90
24860;DHT22;12936;52.006;4.350;2023-03-01T08:16:13;2.90;99.90
24860;DHT22;12936;52.006;4.350;2023-03-01T08:18:43;3.00;99.90
24860;DHT22;12936;52.006;4.350;2023-03-01T08:21:13;3.00;99.90
24860;DHT22;12936;52.006;4.350;2023-03-01T08:23:41;3.00;99.90
24860;DHT22;12936;52.006;4.350;2023-03-01T08:26:11;3.00;99.90
24860;DHT22;12936;52.006;4.350;2023-03-01T08:28:41;3.10;99.90
24860;DHT22;12936;52.006;4.350;2023-03-01T08:31:17;3.20;99.90
24860;DHT22;12936;52.006;4.350;2023-03-01T08:33:49;3.10;99.90
24860;DHT22;12936;52.006;4.350;2023-03-01T08:36:18;3.10;99.90
24860;DHT22;12936;52.006;4.350;2023-03-01T08:38:48;3.20;99.90
24860;DHT22;12936;52.006;4.350;2023-03-01T08:41:16;3.20;99.90
24860;DHT22;12936;52.006;4.350;2023-03-01T08:43:44;3.20;99.90
24860;DHT22;12936;52.006;4.350;2023-03-01T08:46:13;3.20;99.90
24860;DHT22;12936;52.006;4.350;2023-03-01T08:48:42;3.30;99.90
24860;DHT22;12936;52.006;4.350;2023-03-01T08:51:13;3.40;99.90
24860;DHT22;12936;52.006;4.350;2023-03-01T08:53:41;3.40;99.90
24860;DHT22;12936;52.006;4.350;2023-03-01T08:56:10;3.50;99.90
24860;DHT22;12936;52.006;4.350;2023-03-01T08:58:39;3.50;99.90
24860;DHT22;12936;52.006;4.350;2023-03-01T09:01:07;3.50;99.90
24860;DHT22;12936;52.006;4.350;2023-03-01T09:03:36;3.50;99.90
24860;DHT22;12936;52.006;4.350;2023-03-01T09:06:06;3.60;99.90
24860;DHT22;12936;52.006;4.350;2023-03-01T09:08:37;3.60;99.90
24860;DHT22;12936;52.006;4.350;2023-03-01T09:11:07;3.60;99.90
24860;DHT22;12936;52.006;4.350;2023-03-01T09:13:36;3.70;99.90
24860;DHT22;12936;52.006;4.350;2023-03-01T09:16:06;3.70;99.90
24860;DHT22;12936;52.006;4.350;2023-03-01T09:18:35;3.80;99.90
24860;DHT22;12936;52.006;4.350;2023-03-01T09:21:05;3.90;99.90
24860;DHT22;12936;52.006;4.350;2023-03-01T09:23:35;3.90;99.90
24860;DHT22;12936;52.006;4.350;2023-03-01T09:26:06;3.90;99.90
24860;DHT22;12936;52.006;4.350;2023-03-01T09:28:35;3.90;99.90
24860;DHT22;12936;52.006;4.350;2023-03-01T09:31:04;4.00;99.90
24860;DHT22;12936;52.006;4.350;2023-03-01T09:33:33;4.00;99.90
24860;DHT22;12936;52.006;4.350;2023-03-01T09:36:04;4.00;99.90
24860;DHT22;12936;52.006;4.350;2023-03-01T09:38:33;4.10;99.90
24860;DHT22;12936;52.006;4.350;2023-03-01T09:41:10;4.10;99.90
24860;DHT22;12936;52.006;4.350;2023-03-01T09:43:43;4.10;99.90
24860;DHT22;12936;52.006;4.350;2023-03-01T09:46:14;4.20;99.90
24860;DHT22;12936;52.006;4.350;2023-03-01T09:48:48;4.20;99.90
24860;DHT22;12936;52.006;4.350;2023-03-01T09:51:27;4.30;99.90
24860;DHT22;12936;52.006;4.350;2023-03-01T09:53:57;4.30;99.90
24860;DHT22;12936;52.006;4.350;2023-03-01T09:56:33;4.40;99.90
24860;DHT22;12936;52.006;4.350;2023-03-01T09:59:14;4.40;99.90
24860;DHT22;12936;52.006;4.350;2023-03-01T10:01:47;4.40;99.90
24860;DHT22;12936;52.006;4.350;2023-03-01T10:04:28;4.40;99.90
24860;DHT22;12936;52.006;4.350;2023-03-01T10:07:07;4.40;99.90
24860;DHT22;12936;52.006;4.350;2023-03-01T10:09:42;4.50;99.90
24860;DHT22;12936;52.006;4.350;2023-03-01T10:12:15;4.50;99.90
24860;DHT22;12936;52.006;4.350;2023-03-01T10:14:50;4.60;99.90
24860;DHT22;12936;52.006;4.350;2023-03-01T10:17:25;4.70;99.90
24860;DHT22;12936;52.006;4.350;2023-03-01T10:19:55;4.70;99.90
24860;DHT22;12936;52.006;4.350;2023-03-01T10:22:34;4.70;99.90
24860;DHT22;12936;52.006;4.350;2023-03-01T10:25:03;4.90;99.90
24860;DHT22;12936;52.006;4.350;2023-03-01T10:27:38;4.90;99.90
24860;DHT22;12936;52.006;4.350;2023-03-01T10:30:13;4.90;99.90
24860;DHT22;12936;52.006;4.350;2023-03-01T10:32:44;5.00;99.90
24860;DHT22;12936;52.006;4.350;2023-03-01T10:35:16;5.00;99.90
24860;DHT22;12936;52.006;4.350;2023-03-01T10:37:59;5.10;99.90
24860;DHT22;12936;52.006;4.350;2023-03-01T10:40:31;5.20;99.90
24860;DHT22;12936;52.006;4.350;2023-03-01T10:43:03;5.20;99.90
24860;DHT22;12936;52.006;4.350;2023-03-01T10:45:34;5.30;99.90
24860;DHT22;12936;52.006;4.350;2023-03-01T10:48:08;5.30;99.90
24860;DHT22;12936;52.006;4.350;2023-03-01T10:50:38;5.40;99.90
24860;DHT22;12936;52.006;4.350;2023-03-01T10:53:23;5.40;99.90
24860;DHT22;12936;52.006;4.350;2023-03-01T10:55:58;5.50;99.90
24860;DHT22;12936;52.006;4.350;2023-03-01T10:58:29;5.60;99.90
24860;DHT22;12936;52.006;4.350;2023-03-01T11:00:59;5.60;99.90
24860;DHT22;12936;52.006;4.350;2023-03-01T11:03:29;5.60;99.90
24860;DHT22;12936;52.006;4.350;2023-03-01T11:06:02;5.60;99.90
24860;DHT22;12936;52.006;4.350;2023-03-01T11:08:34;5.70;99.90
24860;DHT22;12936;52.006;4.350;2023-03-01T11:13:57;5.80;99.90
24860;DHT22;12936;52.006;4.350;2023-03-01T11:16:29;5.80;99.90
24860;DHT22;12936;52.006;4.350;2023-03-01T11:19:03;5.80;99.90
24860;DHT22;12936;52.006;4.350;2023-03-01T11:21:33;5.80;99.90
24860;DHT22;12936;52.006;4.350;2023-03-01T11:24:03;5.80;99.90
24860;DHT22;12936;52.006;4.350;2023-03-01T11:26:37;5.90;99.90
24860;DHT22;12936;52.006;4.350;2023-03-01T11:29:21;6.00;99.90
24860;DHT22;12936;52.006;4.350;2023-03-01T11:32:01;6.00;99.90
24860;DHT22;12936;52.006;4.350;2023-03-01T11:34:40;6.10;99.90
24860;DHT22;12936;52.006;4.350;2023-03-01T11:37:20;6.10;99.90
24860;DHT22;12936;52.006;4.350;2023-03-01T11:39:56;6.10;99.90
24860;DHT22;12936;52.006;4.350;2023-03-01T11:42:38;6.20;99.90
24860;DHT22;12936;52.006;4.350;2023-03-01T11:45:11;6.20;99.90
24860;DHT22;12936;52.006;4.350;2023-03-01T11:47:59;6.10;99.90
24860;DHT22;12936;52.006;4.350;2023-03-01T11:50:38;6.20;99.90
24860;DHT22;12936;52.006;4.350;2023-03-01T11:53:33;6.20;99.90
24860;DHT22;12936;52.006;4.350;2023-03-01T11:56:09;6.30;99.90
24860;DHT22;12936;52.006;4.350;2023-03-01T11:59:03;6.30;99.90
24860;DHT22;12936;52.006;4.350;2023-03-01T12:01:48;6.30;99.90
24860;DHT22;12936;52.006;4.350;2023-03-01T12:04:44;6.40;99.90
24860;DHT22;12936;52.006;4.350;2023-03-01T12:07:23;6.40;99.90
24860;DHT22;12936;52.006;4.350;2023-03-01T12:10:04;6.50;99.90
24860;DHT22;12936;52.006;4.350;2023-03-01T12:13:02;6.60;99.90
24860;DHT22;12936;52.006;4.350;2023-03-01T12:15:45;6.60;99.90
24860;DHT22;12936;52.006;4.350;2023-03-01T12:18:45;6.60;99.90
24860;DHT22;12936;52.006;4.350;2023-03-01T12:21:23;6.70;99.90
24860;DHT22;12936;52.006;4.350;2023-03-01T12:24:17;6.60;99.90
24860;DHT22;12936;52.006;4.350;2023-03-01T12:26:54;6.70;99.90
24860;DHT22;12936;52.006;4.350;2023-03-01T12:29:32;6.70;99.90
24860;DHT22;12936;52.006;4.350;2023-03-01T12:32:19;6.70;99.90
24860;DHT22;12936;52.006;4.350;2023-03-01T12:37:58;6.70;99.90
24860;DHT22;12936;52.006;4.350;2023-03-01T12:41:00;6.80;99.90
24860;DHT22;12936;52.006;4.350;2023-03-01T12:43:39;6.90;99.90
24860;DHT22;12936;52.006;4.350;2023-03-01T12:46:19;6.90;99.90
24860;DHT22;12936;52.006;4.350;2023-03-01T12:48:56;6.90;99.90
24860;DHT22;12936;52.006;4.350;2023-03-01T12:51:33;6.90;99.90
24860;DHT22;12936;52.006;4.350;2023-03-01T12:54:07;6.90;99.90
24860;DHT22;12936;52.006;4.350;2023-03-01T12:56:39;7.00;99.90
24860;DHT22;12936;52.006;4.350;2023-03-01T12:59:13;7.00;99.90
24860;DHT22;12936;52.006;4.350;2023-03-01T13:01:51;7.10;99.90
24860;DHT22;12936;52.006;4.350;2023-03-01T13:04:41;7.20;99.90
24860;DHT22;12936;52.006;4.350;2023-03-01T13:07:25;7.20;99.90
24860;DHT22;12936;52.006;4.350;2023-03-01T13:10:04;7.30;99.90
24860;DHT22;12936;52.006;4.350;2023-03-01T13:12:45;7.30;99.90
24860;DHT22;12936;52.006;4.350;2023-03-01T13:15:32;7.30;99.90
24860;DHT22;12936;52.006;4.350;2023-03-01T13:18:03;7.30;99.90
24860;DHT22;12936;52.006;4.350;2023-03-01T13:20:44;7.30;99.90
24860;DHT22;12936;52.006;4.350;2023-03-01T13:23:26;7.30;99.90
24860;DHT22;12936;52.006;4.350;2023-03-01T13:26:04;7.40;99.90
24860;DHT22;12936;52.006;4.350;2023-03-01T13:28:39;7.50;99.90
24860;DHT22;12936;52.006;4.350;2023-03-01T13:31:09;7.50;99.90
24860;DHT22;12936;52.006;4.350;2023-03-01T13:33:43;7.40;99.90
24860;DHT22;12936;52.006;4.350;2023-03-01T13:36:47;7.50;99.90
24860;DHT22;12936;52.006;4.350;2023-03-01T13:39:31;7.50;99.90
24860;DHT22;12936;52.006;4.350;2023-03-01T13:42:37;7.50;99.90
24860;DHT22;12936;52.006;4.350;2023-03-01T13:45:23;7.60;99.90
24860;DHT22;12936;52.006;4.350;2023-03-01T13:48:00;7.60;99.90
24860;DHT22;12936;52.006;4.350;2023-03-01T13:50:33;7.60;99.90
24860;DHT22;12936;52.006;4.350;2023-03-01T13:53:06;7.70;99.90
24860;DHT22;12936;52.006;4.350;2023-03-01T13:55:42;7.70;99.90
24860;DHT22;12936;52.006;4.350;2023-03-01T13:58:19;7.80;99.90
24860;DHT22;12936;52.006;4.350;2023-03-01T14:00:54;7.80;99.90
24860;DHT22;12936;52.006;4.350;2023-03-01T14:03:22;7.80;99.90
24860;DHT22;12936;52.006;4.350;2023-03-01T14:06:03;7.70;99.90
24860;DHT22;12936;52.006;4.350;2023-03-01T14:08:42;7.70;99.90
24860;DHT22;12936;52.006;4.350;2023-03-01T14:14:29;7.70;99.90
24860;DHT22;12936;52.006;4.350;2023-03-01T14:17:09;7.70;99.90
24860;DHT22;12936;52.006;4.350;2023-03-01T14:19:41;7.70;99.90
24860;DHT22;12936;52.006;4.350;2023-03-01T14:22:22;7.70;99.90
24860;DHT22;12936;52.006;4.350;2023-03-01T14:24:55;7.70;99.90
24860;DHT22;12936;52.006;4.350;2023-03-01T14:27:28;7.80;99.90
24860;DHT22;12936;52.006;4.350;2023-03-01T14:29:59;7.80;99.90
24860;DHT22;12936;52.006;4.350;2023-03-01T14:32:29;7.80;99.90
24860;DHT22;12936;52.006;4.350;2023-03-01T14:34:59;7.80;99.90
24860;DHT22;12936;52.006;4.350;2023-03-01T14:37:29;7.80;99.90
24860;DHT22;12936;52.006;4.350;2023-03-01T14:40:00;7.80;99.90
24860;DHT22;12936;52.006;4.350;2023-03-01T14:42:34;7.80;99.90
24860;DHT22;12936;52.006;4.350;2023-03-01T14:45:14;7.80;99.90
24860;DHT22;12936;52.006;4.350;2023-03-01T14:47:44;7.90;99.90
24860;DHT22;12936;52.006;4.350;2023-03-01T14:50:22;8.20;99.90
24860;DHT22;12936;52.006;4.350;2023-03-01T14:52:54;8.60;99.90
24860;DHT22;12936;52.006;4.350;2023-03-01T14:55:27;9.00;99.90
24860;DHT22;12936;52.006;4.350;2023-03-01T14:57:58;9.20;99.90
24860;DHT22;12936;52.006;4.350;2023-03-01T15:00:30;9.10;99.90
24860;DHT22;12936;52.006;4.350;2023-03-01T15:03:04;9.00;99.90
24860;DHT22;12936;52.006;4.350;2023-03-01T15:05:37;8.80;99.90
24860;DHT22;12936;52.006;4.350;2023-03-01T15:08:05;8.70;99.90
24860;DHT22;12936;52.006;4.350;2023-03-01T15:10:35;8.60;99.90
24860;DHT22;12936;52.006;4.350;2023-03-01T15:13:21;8.60;99.90
24860;DHT22;12936;52.006;4.350;2023-03-01T15:15:50;8.40;99.90
24860;DHT22;12936;52.006;4.350;2023-03-01T15:18:20;8.30;99.90
24860;DHT22;12936;52.006;4.350;2023-03-01T15:20:50;8.20;99.90
24860;DHT22;12936;52.006;4.350;2023-03-01T15:23:24;8.10;99.90
24860;DHT22;12936;52.006;4.350;2023-03-01T15:25:54;8.00;99.90
24860;DHT22;12936;52.006;4.350;2023-03-01T15:28:27;8.00;99.90
24860;DHT22;12936;52.006;4.350;2023-03-01T15:30:58;8.00;99.90
24860;DHT22;12936;52.006;4.350;2023-03-01T15:33:33;7.90;99.90
24860;DHT22;12936;52.006;4.350;2023-03-01T15:36:03;7.90;99.90
24860;DHT22;12936;52.006;4.350;2023-03-01T15:38:53;7.90;99.90
24860;DHT22;12936;52.006;4.350;2023-03-01T15:41:24;7.70;99.90
24860;DHT22;12936;52.006;4.350;2023-03-01T15:43:54;7.70;99.90
24860;DHT22;12936;52.006;4.350;2023-03-01T15:46:26;7.70;99.90
24860;DHT22;12936;52.006;4.350;2023-03-01T15:48:58;7.60;99.90
24860;DHT22;12936;52.006;4.350;2023-03-01T15:51:32;7.60;99.90
24860;DHT22;12936;52.006;4.350;2023-03-01T15:54:05;7.60;99.90
24860;DHT22;12936;52.006;4.350;2023-03-01T15:56:33;7.50;99.90
24860;DHT22;12936;52.006;4.350;2023-03-01T15:59:03;7.50;99.90
24860;DHT22;12936;52.006;4.350;2023-03-01T16:01:31;7.50;99.90
24860;DHT22;12936;52.006;4.350;2023-03-01T16:04:01;7.40;99.90
24860;DHT22;12936;52.006;4.350;2023-03-01T16:06:29;7.40;99.90
24860;DHT22;12936;52.006;4.350;2023-03-01T16:08:58;7.40;99.90
24860;DHT22;12936;52.006;4.350;2023-03-01T16:11:26;7.50;99.90
24860;DHT22;12936;52.006;4.350;2023-03-01T16:13:54;7.50;99.90
24860;DHT22;12936;52.006;4.350;2023-03-01T16:16:24;7.50;99.90
24860;DHT22;12936;52.006;4.350;2023-03-01T16:18:52;7.50;99.90
24860;DHT22;12936;52.006;4.350;2023-03-01T16:21:23;7.40;99.90
24860;DHT22;12936;52.006;4.350;2023-03-01T16:23:52;7.40;99.90
24860;DHT22;12936;52.006;4.350;2023-03-01T16:26:20;7.40;99.90
24860;DHT22;12936;52.006;4.350;2023-03-01T16:28:48;7.40;99.90
24860;DHT22;12936;52.006;4.350;2023-03-01T16:31:20;7.30;99.90
24860;DHT22;12936;52.006;4.350;2023-03-01T16:33:52;7.30;99.90
24860;DHT22;12936;52.006;4.350;2023-03-01T16:36:21;7.30;99.90
24860;DHT22;12936;52.006;4.350;2023-03-01T16:38:50;7.20;99.90
24860;DHT22;12936;52.006;4.350;2023-03-01T16:41:21;7.20;99.90
24860;DHT22;12936;52.006;4.350;2023-03-01T16:43:50;7.20;99.90
24860;DHT22;12936;52.006;4.350;2023-03-01T16:46:20;7.20;99.90
24860;DHT22;12936;52.006;4.350;2023-03-01T16:48:50;7.20;99.90